Flight Track Log - Related Links

Times and Time Zones

All times are in EDT time to prevent confusion due to time zone crossing. See the SKW6306 flight status page for this flight to view local times or setup timezone preferences in your user account.

Time Position Orientation Groundspeed Altitude Reporting Facility
EDT Latitude Longitude Course Direction KTS MPH feet Rate Location/Type
Wed 03:04:53 PM 39.9239 -104.6850 346° North 206 237 6,300  Level Denver Center
Wed 03:05:55 PM 39.9869 -104.6703 10° North 232 267 7,700 1,500 Climbing Denver Center
Wed 03:06:57 PM 40.0678 -104.6597 North 273 314 9,400 1,366 Climbing Denver Center
Wed 03:07:00 PM 40.1711 -104.7730 347° North  Level FlightAware Approximate
Wed 03:07:58 PM 40.1364 -104.6781 348° North 294 338 10,500  Level Denver Center
Wed 03:08:00 PM 40.2789 -104.8053 347° North  Level FlightAware Approximate
Wed 03:09:00 PM 40.3863 -104.8399 346° North  Level FlightAware Approximate
Wed 03:09:01 PM 40.2408 -104.7064 348° North 315 362 11,900  Level Denver Center
Wed 03:10:00 PM 40.4936 -104.8756 346° North  Level FlightAware Approximate
Wed 03:10:15 PM 40.3297 -104.7297 349° North 322 371 13,500  Level Denver Center
Wed 03:11:17 PM 40.4383 -104.7600 348° North 321 369 15,300 1,645 Climbing Denver Center
Wed 03:12:19 PM 40.5361 -104.7847 349° North 330 380 16,900 1,161 Climbing Denver Center
Wed 03:13:21 PM 40.6267 -104.8106 348° North 334 384 17,700 864 Climbing Denver Center
Wed 03:14:24 PM 40.7286 -104.8361 349° North 346 398 18,700 871 Climbing Denver Center
Wed 03:15:25 PM 40.8175 -104.8667 345° North 333 383 19,500 823 Climbing Denver Center
Wed 03:16:28 PM 40.9081 -104.9125 339° North 343 395 20,400 816 Climbing Denver Center
Wed 03:17:30 PM 40.9994 -104.9592 339° North 351 404 21,200 726 Climbing Denver Center
Wed 03:18:32 PM 41.1094 -105.0108 341° North 357 411 21,900 677 Climbing Denver Center
Wed 03:19:34 PM 41.2008 -105.0556 340° North 363 418 22,600 677 Climbing Denver Center
Wed 03:20:36 PM 41.2936 -105.1028 339° North 370 426 23,300 774 Climbing Denver Center
Wed 03:21:38 PM 41.4025 -105.1561 340° North 373 429 24,200 823 Climbing Denver Center
Wed 03:22:40 PM 41.4964 -105.2017 340° North 376 433 25,000 823 Climbing Denver Center
Wed 03:23:42 PM 41.6103 -105.2431 345° North 379 436 25,900 823 Climbing Denver Center
Wed 03:24:44 PM 41.7131 -105.2636 352° North 387 445 26,700 823 Climbing Denver Center
Wed 03:25:46 PM 41.8292 -105.2847 352° North 379 436 27,600 823 Climbing Denver Center
Wed 03:26:48 PM 41.9306 -105.3050 352° North 380 437 28,400 823 Climbing Denver Center
Wed 03:27:50 PM 42.0472 -105.3278 352° North 377 434 29,300 677 Climbing Denver Center
Wed 03:28:52 PM 42.1469 -105.3464 352° North 377 434 29,800 435 Climbing Denver Center
Wed 03:29:54 PM 42.2303 -105.3619 352° North 377 434 30,200 484 Climbing Denver Center
Wed 03:30:56 PM 42.3656 -105.3875 352° North 382 440 30,800 532 Climbing Denver Center
Wed 03:31:58 PM 42.4683 -105.4072 352° North 387 445 31,300 387 Climbing Denver Center
Wed 03:33:00 PM 42.5881 -105.4311 352° North 388 447 31,600 290 Climbing Denver Center
Wed 03:34:02 PM 42.6939 -105.4511 352° North 398 458 31,900 194 Climbing Denver Center
Wed 03:35:04 PM 42.8164 -105.4744 352° North 397 457 32,000 48 Climbing Denver Center
Wed 03:36:06 PM 42.9236 -105.4958 352° North 403 464 32,000  Level Denver Center
Wed 03:37:09 PM 43.0533 -105.5208 352° North 415 478 32,000  Level Denver Center
Wed 03:38:11 PM 43.1658 -105.5428 352° North 423 487 32,000  Level Denver Center
Wed 03:39:13 PM 43.2981 -105.5689 352° North 428 493 32,000  Level Denver Center
Wed 03:40:56 PM 43.4911 -105.6072 352° North 435 501 32,000  Level Salt Lake Center
Wed 03:41:58 PM 43.6228 -105.6336 352° North 432 497 32,000  Level Salt Lake Center
Wed 03:43:00 PM 43.7369 -105.6569 352° North 432 497 32,000  Level Salt Lake Center
Wed 03:44:02 PM 43.8719 -105.6831 352° North 434 499 32,000  Level Salt Lake Center
Wed 03:45:04 PM 43.9872 -105.7050 352° North 436 502 32,000  Level Salt Lake Center
Wed 03:46:06 PM 44.1208 -105.7336 351° North 435 501 32,000  Level Salt Lake Center
Wed 03:47:08 PM 44.2350 -105.7567 352° North 434 499 32,000  Level Salt Lake Center
Wed 03:48:10 PM 44.3681 -105.7833 352° North 433 498 32,000  Level Salt Lake Center
Wed 03:49:12 PM 44.4828 -105.8061 352° North 434 499 32,000  Level Salt Lake Center
Wed 03:50:14 PM 44.6147 -105.8347 351° North 431 496 32,000  Level Salt Lake Center
Wed 03:51:16 PM 44.7294 -105.8581 352° North 433 498 32,000  Level Salt Lake Center
Wed 03:52:18 PM 44.8619 -105.8844 352° North 432 497 32,000  Level Salt Lake Center
Wed 03:53:20 PM 44.9764 -105.9100 351° North 434 499 32,000  Level Salt Lake Center
Wed 03:54:22 PM 45.0903 -105.9333 352° North 433 498 32,000  Level Salt Lake Center
Wed 03:55:24 PM 45.2242 -105.9611 352° North 435 501 32,000  Level Salt Lake Center
Wed 03:56:26 PM 45.3308 -105.9847 351° North 434 499 32,000  Level Salt Lake Center
Wed 03:57:28 PM 45.4733 -106.0136 352° North 432 497 32,000  Level Salt Lake Center
Wed 03:58:30 PM 45.5928 -106.0389 352° North 433 498 32,000  Level Salt Lake Center
Wed 03:59:32 PM 45.7125 -106.0642 352° North 435 501 32,000  Level Salt Lake Center
Wed 04:00:34 PM 45.8311 -106.0886 352° North 433 498 32,000  Level Salt Lake Center
Wed 04:01:36 PM 45.9486 -106.1128 352° North 430 495 32,000  Level Salt Lake Center
Wed 04:02:38 PM 46.0681 -106.1369 352° North 431 496 32,000  Level Salt Lake Center
Wed 04:03:40 PM 46.2125 -106.1694 351° North 433 498 32,000  Level Salt Lake Center
Wed 04:04:42 PM 46.3325 -106.1967 351° North 435 501 32,000  Level Salt Lake Center
Wed 04:05:44 PM 46.4517 -106.2231 351° North 435 501 32,000  Level Salt Lake Center
Wed 04:06:46 PM 46.5714 -106.2506 351° North 435 501 32,000  Level Salt Lake Center
Wed 04:07:48 PM 46.6903 -106.2758 352° North 434 499 32,000  Level Salt Lake Center
Wed 04:08:50 PM 46.8119 -106.3036 351° North 436 502 32,000  Level Salt Lake Center
Wed 04:09:52 PM 46.9289 -106.3303 351° North 434 499 32,000  Level Salt Lake Center
Wed 04:10:54 PM 47.0706 -106.3611 352° North 432 497 32,000  Level Salt Lake Center
Wed 04:11:56 PM 47.1900 -106.3883 351° North 431 496 32,000  Level Salt Lake Center
Wed 04:12:58 PM 47.3089 -106.4156 351° North 432 497 32,000  Level Salt Lake Center
Wed 04:14:00 PM 47.4275 -106.4428 351° North 432 497 32,000  Level Salt Lake Center
Wed 04:15:02 PM 47.5444 -106.4700 351° North 429 494 32,000  Level Salt Lake Center
Wed 04:16:04 PM 47.6600 -106.4978 351° North 425 489 32,000  Level Salt Lake Center
Wed 04:17:06 PM 47.7775 -106.5242 351° North 425 489 32,000  Level Salt Lake Center
Wed 04:18:08 PM 47.9181 -106.5564 351° North 426 490 32,000  Level Salt Lake Center
Wed 04:19:09 PM 48.0361 -106.5850 351° North 427 491 32,000  Level Salt Lake Center
Wed 04:20:11 PM 48.1539 -106.6108 352° North 428 493 32,000  Level Salt Lake Center
Wed 04:21:13 PM 48.2706 -106.6503 347° North 429 494 32,000  Level Salt Lake Center
Wed 04:22:15 PM 48.3781 -106.7064 341° North 419 482 32,000 -48 Level Salt Lake Center
Wed 04:23:17 PM 48.4903 -106.7469 347° North 417 480 31,900  Descending Salt Lake Center
Wed 04:24:19 PM 48.6336 -106.7739 353° North 427 491 32,000 48 Climbing Salt Lake Center
Wed 04:25:21 PM 48.7542 -106.7975 353° North 432 497 32,000  Level Salt Lake Center
Wed 04:26:23 PM 48.8725 -106.8206 353° North 432 497 32,000  Level Salt Lake Center
Wed 04:27:12 PM 48.9667 -106.8667 342° North 430 495 32,000  Level Winnipeg Center
Wed 04:28:12 PM 49.0833 -106.8833 355° North 430 495 32,000  Level Winnipeg Center
Wed 04:29:12 PM 49.1833 -106.9167 348° North 430 495 32,000  Level Winnipeg Center
Wed 04:30:12 PM 49.3000 -106.9333 355° North 420 483 32,000  Level Winnipeg Center
Wed 04:31:12 PM 49.4167 -106.9667 349° North 430 495 32,000  Level Winnipeg Center
Wed 04:32:12 PM 49.5500 -106.9833 355° North 430 495 32,000  Level Winnipeg Center
Wed 04:33:12 PM 49.6500 -107.0167 348° North 430 495 32,000  Level Winnipeg Center
Wed 04:34:12 PM 49.7833 -107.0333 355° North 420 483 32,000  Level Winnipeg Center
Wed 04:35:12 PM 49.9000 -107.0667 350° North 430 495 32,000  Level Winnipeg Center
Wed 04:36:12 PM 50.0167 -107.0833 355° North 430 495 32,000  Level Winnipeg Center
Wed 04:37:12 PM 50.1333 -107.1167 350° North 430 495 32,000  Level Winnipeg Center
Wed 04:38:12 PM 50.2500 -107.1333 355° North 430 495 32,000  Level Winnipeg Center
Wed 04:39:12 PM 50.3833 -107.1667 351° North 430 495 32,000  Level Winnipeg Center
Wed 04:40:12 PM 50.5000 -107.2000 350° North 430 495 32,000  Level Winnipeg Center
Wed 04:41:12 PM 50.6000 -107.2167 354° North 430 495 32,000  Level Winnipeg Center
Wed 04:42:12 PM 50.7333 -107.2167 360° North 430 495 32,000  Level Winnipeg Center
Wed 04:43:12 PM 50.8500 -107.2500 350° North 430 495 32,000  Level Winnipeg Center
Wed 04:44:12 PM 50.9667 -107.2667 355° North 430 495 32,000  Level Winnipeg Center
Wed 04:45:12 PM 51.0833 -107.3000 350° North 430 495 32,000  Level Winnipeg Center
Wed 04:46:12 PM 51.2000 -107.3167 355° North 430 495 32,000 -100 Level Winnipeg Center
Wed 04:47:12 PM 51.3333 -107.3333 356° North 450 518 31,800 -1,100 Descending Winnipeg Center
Wed 04:48:12 PM 51.4500 -107.2833 15° North 470 541 29,800 -2,150 Descending Winnipeg Center
Wed 04:49:12 PM 51.5667 -107.2500 10° North 440 506 27,500 -3,300 Descending Winnipeg Center
Wed 04:50:12 PM 51.6667 -107.3000 343° North 410 472 23,200 -4,750 Descending Winnipeg Center
Wed 04:51:12 PM 51.7833 -107.3000 360° North 390 449 18,000 -4,750 Descending Winnipeg Center
Wed 04:52:12 PM 51.8667 -107.2000 37° Northeast 390 449 13,700 -3,600 Descending Winnipeg Center
Wed 04:53:12 PM 51.9000 -107.0833 65° Northeast 350 403 10,800 -2,750 Descending Winnipeg Center
Wed 04:54:12 PM 51.9333 -106.9167 72° East 310 357 8,200 -2,800 Descending Winnipeg Center
Wed 04:55:12 PM 51.9667 -106.8167 62° Northeast 290 334 5,200 -1,800 Descending Winnipeg Center
Wed 04:56:12 PM 51.9833 -106.6833 78° East 280 322 4,600 -600 Descending Winnipeg Center
Wed 04:57:12 PM 52.0000 -106.5833 75° East 260 299 4,000 -300 Descending Winnipeg Center
Wed 04:58:12 PM 52.0333 -106.5167 51° Northeast 210 242 4,000 50 Level Winnipeg Center
Wed 04:59:12 PM 52.0833 -106.5000 12° North 210 242 4,100 -150 Climbing Winnipeg Center
Wed 05:00:12 PM 52.1333 -106.5333 338° Northwest 200 230 3,700 -400 Descending Winnipeg Center

Login

Don't have an account? Register now (free) for customized features, flight alerts, and more!